createdAt,value
2023-05-10T00:02:06.969Z,8.83
2023-05-10T00:04:35.734Z,8.78
2023-05-10T00:07:03.921Z,8.76
2023-05-10T00:15:50.417Z,8.75
2023-05-10T00:18:18.999Z,8.71
2023-05-10T00:20:48.481Z,8.71
2023-05-10T00:23:17.853Z,8.73
2023-05-10T00:25:46.201Z,8.75
2023-05-10T00:28:14.446Z,8.75
2023-05-10T00:30:42.608Z,8.74
2023-05-10T00:33:10.984Z,8.73
2023-05-10T00:35:40.717Z,8.72
2023-05-10T00:38:09.873Z,8.69
2023-05-10T00:40:38.680Z,8.67
2023-05-10T00:43:10.325Z,8.64
2023-05-10T00:45:41.252Z,8.61
2023-05-10T00:48:09.835Z,8.58
2023-05-10T00:50:39.917Z,8.55
2023-05-10T00:53:10.003Z,8.51
2023-05-10T00:55:38.517Z,8.48
2023-05-10T00:58:08.123Z,8.45
2023-05-10T01:00:39.038Z,8.40
2023-05-10T01:03:07.385Z,8.39
2023-05-10T01:05:35.778Z,8.35
2023-05-10T01:08:04.040Z,8.31
2023-05-10T01:10:33.027Z,8.28
2023-05-10T01:13:01.752Z,8.24
2023-05-10T01:15:32.037Z,8.19
2023-05-10T01:18:02.745Z,8.13
2023-05-10T01:20:43.503Z,8.07
2023-05-10T01:23:29.696Z,8.00
2023-05-10T01:26:21.766Z,7.90
2023-05-10T01:29:02.929Z,7.81
2023-05-10T01:31:59.391Z,7.73
2023-05-10T01:34:37.861Z,7.64
2023-05-10T01:37:18.108Z,7.55
2023-05-10T01:40:04.213Z,7.45
2023-05-10T01:43:02.842Z,7.40
2023-05-10T01:45:56.873Z,7.33
2023-05-10T01:48:28.236Z,7.26
2023-05-10T01:50:59.533Z,7.20
2023-05-10T01:53:29.125Z,7.15
2023-05-10T01:55:59.919Z,7.12
2023-05-10T01:58:36.320Z,7.09
2023-05-10T02:01:08.551Z,7.06
2023-05-10T02:03:39.691Z,7.02
2023-05-10T02:06:08.714Z,6.98
2023-05-10T02:08:38.359Z,6.95
2023-05-10T02:11:07.007Z,6.92
2023-05-10T02:13:36.636Z,6.89
2023-05-10T02:16:09.558Z,6.82
2023-05-10T02:18:42.678Z,6.76
2023-05-10T02:21:12.155Z,6.73
2023-05-10T02:23:41.677Z,6.71
2023-05-10T02:26:13.097Z,6.67
2023-05-10T02:28:44.533Z,6.66
2023-05-10T02:31:14.070Z,6.63
2023-05-10T02:33:43.432Z,6.60
2023-05-10T02:36:14.052Z,6.57
2023-05-10T02:38:42.618Z,6.54
2023-05-10T02:41:12.520Z,6.51
2023-05-10T02:43:42.236Z,6.48
2023-05-10T02:46:12.202Z,6.47
2023-05-10T02:48:40.584Z,6.44
2023-05-10T02:51:15.082Z,6.42
2023-05-10T02:53:47.779Z,6.39
2023-05-10T02:56:28.208Z,6.35
2023-05-10T02:58:56.554Z,6.31
2023-05-10T03:01:25.018Z,6.30
2023-05-10T03:03:53.232Z,6.26
2023-05-10T03:06:21.419Z,6.24
2023-05-10T03:08:51.499Z,6.23
2023-05-10T03:11:50.587Z,6.23
2023-05-10T03:14:26.872Z,6.22
2023-05-10T03:17:05.763Z,6.21
2023-05-10T03:19:47.174Z,6.18
2023-05-10T03:22:26.855Z,6.16
2023-05-10T03:24:58.744Z,6.14
2023-05-10T03:27:31.035Z,6.12
2023-05-10T03:30:03.406Z,6.13
2023-05-10T03:32:35.510Z,6.12
2023-05-10T03:35:14.263Z,6.12
2023-05-10T03:37:43.039Z,6.12
2023-05-10T03:40:11.744Z,6.14
2023-05-10T03:42:42.789Z,6.16
2023-05-10T03:45:11.176Z,6.20
2023-05-10T03:47:40.044Z,6.22
2023-05-10T03:50:08.987Z,6.22
2023-05-10T03:52:40.171Z,6.28
2023-05-10T03:55:09.692Z,6.33
2023-05-10T03:57:39.538Z,6.38
2023-05-10T04:00:10.758Z,6.42
2023-05-10T04:02:46.375Z,6.45
2023-05-10T04:05:19.635Z,6.47
2023-05-10T04:07:50.365Z,6.50
2023-05-10T04:10:18.764Z,6.50
2023-05-10T04:12:47.080Z,6.53
2023-05-10T04:15:15.236Z,6.52
2023-05-10T04:17:43.451Z,6.56
2023-05-10T04:20:17.246Z,6.61
2023-05-10T04:22:50.647Z,6.65
2023-05-10T04:25:20.211Z,6.69
2023-05-10T04:27:48.558Z,6.73
2023-05-10T04:30:17.093Z,6.78
2023-05-10T04:33:06.303Z,6.85
2023-05-10T04:35:36.286Z,6.92
2023-05-10T04:38:05.255Z,7.01
2023-05-10T04:40:44.824Z,7.13
2023-05-10T04:43:13.074Z,7.27
2023-05-10T04:45:41.397Z,7.41
2023-05-10T04:48:09.448Z,7.61
2023-05-10T04:50:38.377Z,7.80
2023-05-10T04:53:11.802Z,7.99
2023-05-10T04:55:40.135Z,8.17
2023-05-10T04:58:08.409Z,8.34
2023-05-10T05:04:49.443Z,8.75
2023-05-10T05:07:18.259Z,8.93
2023-05-10T05:09:46.462Z,9.08
2023-05-10T05:12:15.513Z,9.24
2023-05-10T05:14:44.630Z,9.39
2023-05-10T05:17:12.981Z,9.55
2023-05-10T05:19:45.687Z,9.68
2023-05-10T05:22:19.659Z,9.82
2023-05-10T05:24:48.828Z,9.95
2023-05-10T05:27:16.960Z,10.08
2023-05-10T05:29:45.198Z,10.24
2023-05-10T05:32:13.509Z,10.46
2023-05-10T05:34:47.899Z,10.63
2023-05-10T05:37:19.665Z,10.68
2023-05-10T05:39:49.508Z,10.80
2023-05-10T05:42:20.076Z,11.13
2023-05-10T05:44:50.058Z,11.55
2023-05-10T05:47:20.105Z,11.89
2023-05-10T05:49:48.560Z,12.08
2023-05-10T05:52:18.878Z,12.25
2023-05-10T05:55:10.570Z,12.56
2023-05-10T05:57:42.714Z,12.89
2023-05-10T06:00:11.536Z,13.20
2023-05-10T06:02:43.339Z,13.53
2023-05-10T06:05:33.988Z,13.67
2023-05-10T06:08:02.783Z,14.14
2023-05-10T06:10:31.784Z,14.57
2023-05-10T06:13:06.079Z,14.63
2023-05-10T06:15:34.480Z,14.78
2023-05-10T06:18:03.478Z,14.77
2023-05-10T06:20:37.024Z,14.63
2023-05-10T06:23:06.012Z,14.41
2023-05-10T06:25:34.118Z,14.25
2023-05-10T06:28:02.809Z,14.29
2023-05-10T06:30:31.202Z,14.26
2023-05-10T06:32:59.417Z,14.09
2023-05-10T06:35:28.570Z,13.82
2023-05-10T06:37:56.966Z,13.89
2023-05-10T06:40:25.120Z,13.99
2023-05-10T06:42:53.403Z,14.06
2023-05-10T06:45:26.663Z,14.17
2023-05-10T06:47:55.384Z,14.08
2023-05-10T06:50:23.667Z,13.83
2023-05-10T06:52:54.510Z,13.61
2023-05-10T06:55:24.598Z,13.61
2023-05-10T06:57:54.416Z,13.58
2023-05-10T07:00:23.594Z,13.67
2023-05-10T07:02:52.281Z,13.79
2023-05-10T07:05:42.904Z,14.05
2023-05-10T07:08:11.533Z,14.30
2023-05-10T07:10:39.863Z,14.46
2023-05-10T07:13:08.479Z,14.75
2023-05-10T07:15:37.013Z,14.92
2023-05-10T07:18:08.850Z,14.96
2023-05-10T07:20:37.695Z,15.16
2023-05-10T07:23:06.095Z,15.37
2023-05-10T07:25:35.024Z,15.49
2023-05-10T07:28:03.216Z,15.90
2023-05-10T07:30:31.976Z,16.19
2023-05-10T07:33:01.649Z,16.27
2023-05-10T07:35:30.281Z,16.23
2023-05-10T07:37:58.648Z,16.29
2023-05-10T07:40:27.816Z,16.49
2023-05-10T07:42:56.283Z,16.98
2023-05-10T07:45:25.701Z,17.27
2023-05-10T07:48:03.519Z,17.54
2023-05-10T07:50:36.269Z,18.10
2023-05-10T07:53:08.996Z,18.56
2023-05-10T07:55:40.168Z,18.98
2023-05-10T07:58:08.820Z,19.62
2023-05-10T08:00:41.679Z,19.61
2023-05-10T08:03:10.539Z,19.30
2023-05-10T08:05:39.333Z,19.43
2023-05-10T08:08:08.925Z,19.28
2023-05-10T08:10:38.437Z,19.49
2023-05-10T08:13:07.292Z,20.06
2023-05-10T08:19:51.904Z,19.89
2023-05-10T08:25:54.725Z,20.86
2023-05-10T08:28:44.773Z,21.12
2023-05-10T08:31:14.141Z,21.20
2023-05-10T08:33:45.187Z,21.13
2023-05-10T08:36:15.516Z,21.20
2023-05-10T08:38:43.977Z,21.42
2023-05-10T08:41:12.710Z,21.34
2023-05-10T08:43:47.198Z,21.42
2023-05-10T08:46:19.209Z,21.52
2023-05-10T08:48:49.189Z,21.59
2023-05-10T08:51:32.710Z,21.33
2023-05-10T08:54:07.095Z,21.52
2023-05-10T08:59:28.553Z,20.94
2023-05-10T09:02:00.833Z,21.40
2023-05-10T09:04:29.398Z,21.56
2023-05-10T09:06:58.422Z,21.63
2023-05-10T09:09:26.963Z,21.69
2023-05-10T09:11:55.959Z,21.35
2023-05-10T09:14:45.924Z,21.32
2023-05-10T09:17:15.518Z,21.21
2023-05-10T09:19:44.116Z,21.39
2023-05-10T09:22:16.603Z,21.26
2023-05-10T09:25:14.861Z,20.99
2023-05-10T09:28:07.505Z,21.03
2023-05-10T09:30:37.149Z,20.45
2023-05-10T09:33:05.514Z,20.16
2023-05-10T09:35:35.166Z,20.06
2023-05-10T09:38:06.640Z,19.90
2023-05-10T09:40:34.850Z,20.11
2023-05-10T09:43:08.560Z,20.55
2023-05-10T09:45:38.929Z,20.87
2023-05-10T09:48:09.033Z,21.33
2023-05-10T09:50:37.963Z,21.48
2023-05-10T09:53:07.924Z,21.59
2023-05-10T09:55:41.898Z,21.85
2023-05-10T09:58:12.922Z,22.13
2023-05-10T10:00:43.329Z,21.89
2023-05-10T10:03:19.721Z,21.47
2023-05-10T10:05:50.439Z,21.07
2023-05-10T10:08:18.803Z,20.88
2023-05-10T10:10:48.065Z,20.55
2023-05-10T10:13:16.786Z,20.19
2023-05-10T10:15:45.876Z,19.87
2023-05-10T10:18:18.747Z,20.06
2023-05-10T10:21:01.859Z,20.05
2023-05-10T10:41:03.620Z,20.22
2023-05-10T10:43:31.981Z,19.38
2023-05-10T10:46:19.044Z,18.65
2023-05-10T10:49:11.105Z,18.05
2023-05-10T10:51:40.305Z,17.57
2023-05-10T10:54:11.881Z,17.32
2023-05-10T10:56:41.746Z,17.09
2023-05-10T10:59:10.157Z,16.81
2023-05-10T11:01:38.336Z,16.66
2023-05-10T11:04:06.753Z,16.57
2023-05-10T11:06:36.994Z,16.29
2023-05-10T11:09:35.487Z,16.14
2023-05-10T11:12:39.507Z,15.86
2023-05-10T11:26:37.049Z,15.69
2023-05-10T11:29:06.580Z,15.68
2023-05-10T11:31:36.744Z,15.82
2023-05-10T11:34:05.151Z,15.96
2023-05-10T11:36:38.102Z,15.98
2023-05-10T11:39:07.139Z,16.19
2023-05-10T11:41:35.501Z,16.73
2023-05-10T11:44:04.088Z,17.13
2023-05-10T11:46:57.955Z,17.30
2023-05-10T11:49:47.880Z,17.34
2023-05-10T11:52:16.564Z,17.12
2023-05-10T11:54:55.057Z,16.99
2023-05-10T11:57:29.531Z,17.05
2023-05-10T11:59:59.151Z,17.26
2023-05-10T12:02:27.932Z,17.50
2023-05-10T12:04:58.453Z,17.55
2023-05-10T12:07:27.821Z,17.85
2023-05-10T12:10:09.746Z,18.16
2023-05-10T12:12:45.552Z,18.56
2023-05-10T12:15:47.616Z,18.64
2023-05-10T12:22:58.274Z,17.97
2023-05-10T12:25:33.835Z,17.54
2023-05-10T12:28:07.083Z,17.23
2023-05-10T12:30:40.266Z,17.00
2023-05-10T12:33:13.487Z,16.82
2023-05-10T12:36:00.485Z,16.67
2023-05-10T12:38:30.845Z,16.52
2023-05-10T12:41:02.489Z,16.34
2023-05-10T12:43:31.499Z,16.23
2023-05-10T12:46:00.510Z,16.09
2023-05-10T12:48:29.997Z,15.99
2023-05-10T12:51:30.600Z,15.90
2023-05-10T13:10:15.046Z,15.66
2023-05-10T13:13:02.029Z,15.64
2023-05-10T13:15:31.155Z,15.62
2023-05-10T13:18:04.195Z,15.55
2023-05-10T13:21:32.864Z,15.53
2023-05-10T13:24:01.460Z,15.49
2023-05-10T13:26:29.809Z,15.43
2023-05-10T13:28:58.154Z,15.38
2023-05-10T13:31:30.601Z,15.28
2023-05-10T13:33:59.606Z,15.17
2023-05-10T13:36:28.447Z,15.10
2023-05-10T13:39:03.630Z,15.09
2023-05-10T13:41:33.431Z,15.08
2023-05-10T13:44:04.139Z,15.07
2023-05-10T13:46:42.656Z,15.12
2023-05-10T13:49:50.851Z,15.18
2023-05-10T13:52:20.322Z,15.25
2023-05-10T13:54:50.849Z,15.25
2023-05-10T13:57:19.792Z,15.27
2023-05-10T13:59:49.689Z,15.27
2023-05-10T14:02:18.625Z,15.27
2023-05-10T14:04:48.927Z,15.22
2023-05-10T14:07:37.330Z,15.26
2023-05-10T14:10:07.431Z,15.34
2023-05-10T14:12:35.986Z,15.41
2023-05-10T14:15:07.864Z,15.42
2023-05-10T14:17:38.440Z,15.49
2023-05-10T14:20:08.192Z,15.55
2023-05-10T14:22:48.988Z,15.63
2023-05-10T14:25:17.630Z,15.72
2023-05-10T14:27:49.477Z,15.75
2023-05-10T14:30:19.553Z,15.75
2023-05-10T14:32:49.963Z,15.79
2023-05-10T14:35:23.330Z,15.81
2023-05-10T14:37:51.688Z,15.79
2023-05-10T14:40:23.197Z,15.71
2023-05-10T14:42:51.498Z,15.67
2023-05-10T14:45:19.636Z,15.62
2023-05-10T14:48:11.711Z,15.63
2023-05-10T14:50:40.752Z,15.62
2023-05-10T14:53:09.521Z,15.61
2023-05-10T15:14:01.024Z,15.20
2023-05-10T15:25:07.289Z,15.01
2023-05-10T15:31:58.090Z,14.92
2023-05-10T15:53:56.441Z,14.39
2023-05-10T15:56:25.000Z,14.34
2023-05-10T15:59:13.272Z,14.32
2023-05-10T16:01:41.751Z,14.20
2023-05-10T16:04:10.024Z,14.15
2023-05-10T16:09:56.144Z,14.03
2023-05-10T16:12:24.670Z,14.01
2023-05-10T16:14:54.730Z,14.01
2023-05-10T16:17:26.280Z,13.95
2023-05-10T16:19:56.772Z,13.92
2023-05-10T16:22:29.264Z,13.91
2023-05-10T16:24:57.881Z,13.90
2023-05-10T16:27:30.142Z,13.87
2023-05-10T16:29:59.189Z,13.86
2023-05-10T16:32:27.465Z,13.86
2023-05-10T16:34:56.059Z,13.86
2023-05-10T16:37:26.825Z,13.81
2023-05-10T16:39:56.448Z,13.76
2023-05-10T16:53:16.060Z,13.47
2023-05-10T16:55:46.708Z,13.41
2023-05-10T16:58:17.846Z,13.31
2023-05-10T17:01:10.432Z,13.21
2023-05-10T17:03:41.991Z,13.12
2023-05-10T17:06:12.522Z,13.04
2023-05-10T17:08:42.217Z,12.99
2023-05-10T17:11:14.728Z,12.95
2023-05-10T17:14:16.519Z,12.92
2023-05-10T17:16:58.161Z,12.90
2023-05-10T17:19:51.968Z,12.86
2023-05-10T17:22:46.220Z,12.79
2023-05-10T17:25:38.672Z,12.76
2023-05-10T17:28:34.058Z,12.73
2023-05-10T17:31:05.730Z,12.70
2023-05-10T17:33:35.403Z,12.68
2023-05-10T17:47:14.835Z,12.83
2023-05-10T17:49:45.920Z,12.76
2023-05-10T17:52:22.010Z,12.68
2023-05-10T17:54:53.203Z,12.57
2023-05-10T17:57:43.849Z,12.46
2023-05-10T18:00:13.098Z,12.38
2023-05-10T18:08:14.446Z,12.15
2023-05-10T18:14:40.603Z,12.01
2023-05-10T18:17:16.195Z,11.98
2023-05-10T18:19:48.899Z,11.95
2023-05-10T18:22:19.016Z,11.91
2023-05-10T18:35:40.594Z,12.07
2023-05-10T18:38:13.202Z,12.06
2023-05-10T18:40:46.612Z,11.97
2023-05-10T18:43:18.925Z,11.93
2023-05-10T18:45:51.308Z,11.87
2023-05-10T18:48:22.357Z,11.81
2023-05-10T18:50:53.960Z,11.74
2023-05-10T18:53:27.192Z,11.68
2023-05-10T18:55:58.836Z,11.62
2023-05-10T18:58:31.766Z,11.57
2023-05-10T19:01:02.951Z,11.53
2023-05-10T19:03:35.517Z,11.49
2023-05-10T19:06:06.540Z,11.43
2023-05-10T19:08:37.894Z,11.36
2023-05-10T19:39:52.704Z,10.87
2023-05-10T19:46:22.953Z,10.69
2023-05-10T19:48:55.226Z,10.63
2023-05-10T19:51:32.024Z,10.57
2023-05-10T19:54:19.503Z,10.54
2023-05-10T19:56:50.644Z,10.47
2023-05-10T19:59:43.581Z,10.41
2023-05-10T20:02:14.701Z,10.36
2023-05-10T20:04:45.885Z,10.31
2023-05-10T20:07:16.971Z,10.27
2023-05-10T20:09:48.105Z,10.21
2023-05-10T20:12:19.279Z,10.15
2023-05-10T20:14:50.555Z,10.11
2023-05-10T20:17:22.060Z,10.08
2023-05-10T20:20:18.355Z,10.10
2023-05-10T20:22:50.502Z,10.04
2023-05-10T20:25:21.467Z,10.03
2023-05-10T20:27:52.488Z,9.99
2023-05-10T20:30:24.080Z,9.95
2023-05-10T20:32:53.474Z,9.92
2023-05-10T20:35:24.582Z,9.88
2023-05-10T20:37:55.696Z,9.87
2023-05-10T20:40:26.769Z,9.85
2023-05-10T20:42:55.477Z,9.82
2023-05-10T20:45:26.522Z,9.81
2023-05-10T20:48:29.275Z,9.85
2023-05-10T20:51:00.854Z,9.91
2023-05-10T20:53:33.930Z,9.95
2023-05-10T20:56:06.976Z,10.00
2023-05-10T20:58:38.164Z,10.06
2023-05-10T21:01:09.500Z,10.09
2023-05-10T21:03:40.457Z,10.13
2023-05-10T21:06:11.694Z,10.17
2023-05-10T21:08:43.131Z,10.18
2023-05-10T21:11:14.292Z,10.20
2023-05-10T21:13:45.443Z,10.22
2023-05-10T21:16:16.490Z,10.23
2023-05-10T21:18:48.077Z,10.23
2023-05-10T21:21:19.334Z,10.22
2023-05-10T21:23:51.148Z,10.20
2023-05-10T21:26:22.276Z,10.20
2023-05-10T21:28:53.335Z,10.17
2023-05-10T21:31:24.694Z,10.13
2023-05-10T21:33:57.129Z,10.10
2023-05-10T21:36:28.379Z,10.09
2023-05-10T21:38:59.432Z,10.06
2023-05-10T21:41:30.368Z,10.04
2023-05-10T21:44:01.354Z,10.01
2023-05-10T21:53:02.812Z,9.91
2023-05-10T21:55:34.517Z,9.86
2023-05-10T21:58:06.164Z,9.84
2023-05-10T22:00:37.349Z,9.79
2023-05-10T22:03:08.910Z,9.76
2023-05-10T22:05:37.125Z,9.74
2023-05-10T22:08:08.571Z,9.70
2023-05-10T22:10:39.765Z,9.66
2023-05-10T22:13:11.136Z,9.63
2023-05-10T22:15:42.003Z,9.59
2023-05-10T22:18:13.321Z,9.54
2023-05-10T22:20:47.516Z,9.50
2023-05-10T22:23:18.454Z,9.45
2023-05-10T22:25:51.161Z,9.43
2023-05-10T22:28:22.215Z,9.38
2023-05-10T22:30:53.046Z,9.36
2023-05-10T22:33:24.296Z,9.34
2023-05-10T22:35:55.275Z,9.33
2023-05-10T22:38:26.660Z,9.31
2023-05-10T22:40:57.732Z,9.29
2023-05-10T22:43:28.621Z,9.24
2023-05-10T22:45:59.673Z,9.20
2023-05-10T22:48:34.260Z,9.17
2023-05-10T22:51:04.014Z,9.13
2023-05-10T22:53:35.113Z,9.12
2023-05-10T22:56:06.569Z,9.10
2023-05-10T22:58:37.838Z,9.09
2023-05-10T23:01:09.087Z,9.08
2023-05-10T23:03:40.592Z,9.06
2023-05-10T23:06:11.890Z,9.04
2023-05-10T23:08:43.598Z,9.02
2023-05-10T23:11:14.692Z,9.00
2023-05-10T23:13:45.815Z,8.96
2023-05-10T23:16:17.199Z,8.93
2023-05-10T23:18:48.573Z,8.91
2023-05-10T23:21:19.566Z,8.89
2023-05-10T23:23:48.770Z,8.86
2023-05-10T23:26:19.771Z,8.85
2023-05-10T23:28:50.948Z,8.82
2023-05-10T23:31:21.926Z,8.80
2023-05-10T23:33:53.364Z,8.78
2023-05-10T23:36:24.421Z,8.77
2023-05-10T23:38:55.772Z,8.75
2023-05-10T23:41:27.064Z,8.73
2023-05-10T23:43:58.297Z,8.71
2023-05-10T23:46:29.265Z,8.69
2023-05-10T23:49:03.534Z,8.64
2023-05-10T23:51:34.731Z,8.59
2023-05-10T23:54:05.771Z,8.53
2023-05-10T23:56:36.590Z,8.47
2023-05-10T23:59:07.878Z,8.39
